createdAt,value
2018-10-12T00:00:38.531Z,99.99
2018-10-12T00:01:38.530Z,99.99
2018-10-12T00:02:38.534Z,99.99
2018-10-12T00:03:38.802Z,99.99
2018-10-12T00:04:38.536Z,99.99
2018-10-12T00:05:38.795Z,99.99
2018-10-12T00:06:38.538Z,99.99
2018-10-12T00:07:38.803Z,99.99
2018-10-12T00:08:38.525Z,99.99
2018-10-12T00:09:38.795Z,99.99
2018-10-12T00:10:38.781Z,99.99
2018-10-12T00:11:38.792Z,99.99
2018-10-12T00:12:38.778Z,99.99
2018-10-12T00:13:38.782Z,99.99
2018-10-12T00:14:38.775Z,99.99
2018-10-12T00:15:38.769Z,99.99
2018-10-12T00:16:38.787Z,99.99
2018-10-12T00:17:38.777Z,99.99
2018-10-12T00:18:38.521Z,99.99
2018-10-12T00:19:38.775Z,99.99
2018-10-12T00:20:38.512Z,99.99
2018-10-12T00:21:38.518Z,99.99
2018-10-12T00:22:38.513Z,99.99
2018-10-12T00:23:38.532Z,99.99
2018-10-12T00:24:38.770Z,99.99
2018-10-12T00:25:38.759Z,99.99
2018-10-12T00:26:38.500Z,99.99
2018-10-12T00:27:38.499Z,99.99
2018-10-12T00:28:38.759Z,99.99
2018-10-12T00:29:38.756Z,99.99
2018-10-12T00:30:38.501Z,99.99
2018-10-12T00:31:38.757Z,99.99
2018-10-12T00:32:38.756Z,99.99
2018-10-12T00:33:38.519Z,99.99
2018-10-12T00:34:38.776Z,99.99
2018-10-12T00:35:38.762Z,99.99
2018-10-12T00:36:38.751Z,99.99
2018-10-12T00:37:38.767Z,99.99
2018-10-12T00:38:38.491Z,99.99
2018-10-12T00:39:38.741Z,99.99
2018-10-12T00:40:38.526Z,99.99
2018-10-12T00:41:38.485Z,99.99
2018-10-12T00:42:38.866Z,99.99
2018-10-12T00:43:38.482Z,99.99
2018-10-12T00:44:38.485Z,99.99
2018-10-12T00:45:38.748Z,99.99
2018-10-12T00:46:38.477Z,99.99
2018-10-12T00:47:38.730Z,99.99
2018-10-12T00:48:38.470Z,99.99
2018-10-12T00:49:38.824Z,99.99
2018-10-12T00:50:38.739Z,99.99
2018-10-12T00:51:38.733Z,99.99
2018-10-12T00:52:38.726Z,99.99
2018-10-12T00:53:38.726Z,99.99
2018-10-12T00:54:38.728Z,99.99
2018-10-12T00:55:38.732Z,99.99
2018-10-12T00:56:38.729Z,99.99
2018-10-12T00:57:38.730Z,99.99
2018-10-12T00:58:38.734Z,99.99
2018-10-12T00:59:38.731Z,99.99
2018-10-12T01:00:38.727Z,99.99
2018-10-12T01:01:38.772Z,99.99
2018-10-12T01:02:38.709Z,99.99
2018-10-12T01:03:38.738Z,99.99
2018-10-12T01:04:38.709Z,99.99
2018-10-12T01:05:38.455Z,99.99
2018-10-12T01:06:38.856Z,99.99
2018-10-12T01:07:38.702Z,99.99
2018-10-12T01:08:38.707Z,99.99
2018-10-12T01:09:38.706Z,99.99
2018-10-12T01:10:38.701Z,99.99
2018-10-12T01:11:38.706Z,99.99
2018-10-12T01:12:38.707Z,99.99
2018-10-12T01:13:38.695Z,99.99
2018-10-12T01:14:38.445Z,99.99
2018-10-12T01:15:38.722Z,99.99
2018-10-12T01:16:38.704Z,99.99
2018-10-12T01:17:38.760Z,99.99
2018-10-12T01:18:38.700Z,99.99
2018-10-12T01:19:38.500Z,99.99
2018-10-12T01:20:38.686Z,99.99
2018-10-12T01:21:38.693Z,99.99
2018-10-12T01:22:38.432Z,99.99
2018-10-12T01:23:39.261Z,99.99
2018-10-12T01:24:38.698Z,99.99
2018-10-12T01:25:38.695Z,99.99
2018-10-12T01:26:38.689Z,99.99
2018-10-12T01:27:38.681Z,99.99
2018-10-12T01:28:38.680Z,99.99
2018-10-12T01:29:38.681Z,99.99
2018-10-12T01:30:38.692Z,99.99
2018-10-12T01:31:38.430Z,99.99
2018-10-12T01:32:38.681Z,99.99
2018-10-12T01:33:40.283Z,99.99
2018-10-12T01:34:38.428Z,99.99
2018-10-12T01:35:38.681Z,99.99
2018-10-12T01:36:38.671Z,99.99
2018-10-12T01:37:38.668Z,99.99
2018-10-12T01:38:38.685Z,99.99
2018-10-12T01:39:38.667Z,99.99
2018-10-12T01:40:38.663Z,99.99
2018-10-12T01:41:38.414Z,99.99
2018-10-12T01:42:38.659Z,99.99
2018-10-12T01:43:38.681Z,99.99
2018-10-12T01:44:38.655Z,99.99
2018-10-12T01:45:38.412Z,99.99
2018-10-12T01:46:38.408Z,99.99
2018-10-12T01:47:38.392Z,99.99
2018-10-12T01:48:38.661Z,99.99
2018-10-12T01:49:38.648Z,99.99
2018-10-12T01:50:38.648Z,99.99
2018-10-12T01:51:38.387Z,99.99
2018-10-12T01:52:38.643Z,99.99
2018-10-12T01:53:38.641Z,99.99
2018-10-12T01:54:38.637Z,99.99
2018-10-12T01:55:38.637Z,99.99
2018-10-12T01:56:38.405Z,99.99
2018-10-12T01:57:38.638Z,99.99
2018-10-12T01:58:38.375Z,99.99
2018-10-12T01:59:38.647Z,99.99
2018-10-12T02:00:38.639Z,99.99
2018-10-12T02:01:38.372Z,99.99
2018-10-12T02:02:38.625Z,99.99
2018-10-12T02:03:38.628Z,99.99
2018-10-12T02:04:38.369Z,99.99
2018-10-12T02:05:38.632Z,99.99
2018-10-12T02:06:38.364Z,99.99
2018-10-12T02:07:38.376Z,99.99
2018-10-12T02:08:38.361Z,99.99
2018-10-12T02:09:38.618Z,99.99
2018-10-12T02:10:38.614Z,99.99
2018-10-12T02:11:38.631Z,99.99
2018-10-12T02:12:38.611Z,99.99
2018-10-12T02:13:38.375Z,99.99
2018-10-12T02:14:38.608Z,99.99
2018-10-12T02:15:38.605Z,99.99
2018-10-12T02:16:38.615Z,99.99
2018-10-12T02:17:38.623Z,99.99
2018-10-12T02:18:38.350Z,99.99
2018-10-12T02:19:38.608Z,99.99
2018-10-12T02:20:38.602Z,99.99
2018-10-12T02:21:38.346Z,99.99
2018-10-12T02:22:38.597Z,99.99
2018-10-12T02:23:38.595Z,99.99
2018-10-12T02:24:38.598Z,99.99
2018-10-12T02:25:38.349Z,99.99
2018-10-12T02:26:38.593Z,99.99
2018-10-12T02:27:38.593Z,99.99
2018-10-12T02:28:38.591Z,99.99
2018-10-12T02:29:38.335Z,99.99
2018-10-12T02:30:38.331Z,99.99
2018-10-12T02:31:38.592Z,99.99
2018-10-12T02:32:38.587Z,99.99
2018-10-12T02:33:38.584Z,99.99
2018-10-12T02:34:38.585Z,99.99
2018-10-12T02:35:38.584Z,99.99
2018-10-12T02:36:38.575Z,99.99
2018-10-12T02:37:38.590Z,99.99
2018-10-12T02:38:38.565Z,99.99
2018-10-12T02:39:38.589Z,99.99
2018-10-12T02:40:38.315Z,99.99
2018-10-12T02:41:38.569Z,99.99
2018-10-12T02:42:38.572Z,99.99
2018-10-12T02:43:38.568Z,99.99
2018-10-12T02:44:38.568Z,99.99
2018-10-12T02:45:38.305Z,99.99
2018-10-12T02:46:38.560Z,99.99
2018-10-12T02:47:38.598Z,99.99
2018-10-12T02:48:38.556Z,99.99
2018-10-12T02:49:38.552Z,99.99
2018-10-12T02:50:38.316Z,99.99
2018-10-12T02:51:38.550Z,99.99
2018-10-12T02:52:38.294Z,99.99
2018-10-12T02:53:38.292Z,99.99
2018-10-12T02:54:38.292Z,99.99
2018-10-12T02:55:38.291Z,99.99
2018-10-12T02:56:38.297Z,99.99
2018-10-12T02:57:38.290Z,99.99
2018-10-12T02:58:38.550Z,99.99
2018-10-12T02:59:38.541Z,99.99
2018-10-12T03:00:38.556Z,99.99
2018-10-12T03:01:38.292Z,99.99
2018-10-12T03:02:38.278Z,99.99
2018-10-12T03:03:38.532Z,99.99
2018-10-12T03:04:38.530Z,99.99
2018-10-12T03:05:38.550Z,99.99
2018-10-12T03:06:38.279Z,99.99
2018-10-12T03:07:38.545Z,99.99
2018-10-12T03:08:38.266Z,99.99
2018-10-12T03:09:38.273Z,99.99
2018-10-12T03:10:38.521Z,99.99
2018-10-12T03:11:38.536Z,99.99
2018-10-12T03:12:38.274Z,99.99
2018-10-12T03:13:38.532Z,99.99
2018-10-12T03:14:38.526Z,99.99
2018-10-12T03:15:38.507Z,99.99
2018-10-12T03:16:38.267Z,99.99
2018-10-12T03:17:38.240Z,99.99
2018-10-12T03:18:38.501Z,99.99
2018-10-12T03:19:38.493Z,99.99
2018-10-12T03:20:38.494Z,99.99
2018-10-12T03:21:38.238Z,99.99
2018-10-12T03:22:38.262Z,99.99
2018-10-12T03:23:38.491Z,99.99
2018-10-12T03:24:38.246Z,99.99
2018-10-12T03:25:38.503Z,99.99
2018-10-12T03:26:38.505Z,99.99
2018-10-12T03:27:38.497Z,99.99
2018-10-12T03:28:38.231Z,99.99
2018-10-12T03:29:38.223Z,99.99
2018-10-12T03:30:38.489Z,99.99
2018-10-12T03:31:38.497Z,99.99
2018-10-12T03:32:38.483Z,99.99
2018-10-12T03:33:38.471Z,99.99
2018-10-12T03:34:38.213Z,99.99
2018-10-12T03:35:38.472Z,99.99
2018-10-12T03:36:38.219Z,99.99
2018-10-12T03:37:38.471Z,99.99
2018-10-12T03:38:38.212Z,99.99
2018-10-12T03:39:38.224Z,99.99
2018-10-12T03:40:38.221Z,99.99
2018-10-12T03:41:38.498Z,99.99
2018-10-12T03:42:38.256Z,99.99
2018-10-12T03:43:38.218Z,99.99
2018-10-12T03:44:38.223Z,99.99
2018-10-12T03:45:38.456Z,99.99
2018-10-12T03:46:38.202Z,99.99
2018-10-12T03:47:38.457Z,99.99
2018-10-12T03:48:38.193Z,99.99
2018-10-12T03:49:38.460Z,99.99
2018-10-12T03:50:38.189Z,99.99
2018-10-12T03:51:38.442Z,99.99
2018-10-12T03:52:38.461Z,99.99
2018-10-12T03:53:38.440Z,99.99
2018-10-12T03:54:38.453Z,99.99
2018-10-12T03:55:38.447Z,99.99
2018-10-12T03:56:38.430Z,99.99
2018-10-12T03:57:38.443Z,99.99
2018-10-12T03:58:38.464Z,99.99
2018-10-12T03:59:38.436Z,99.99
2018-10-12T04:00:38.193Z,99.99
2018-10-12T04:01:38.165Z,99.99
2018-10-12T04:02:38.482Z,99.99
2018-10-12T04:03:38.427Z,99.99
2018-10-12T04:04:38.440Z,99.99
2018-10-12T04:05:38.434Z,99.99
2018-10-12T04:06:38.157Z,99.99
2018-10-12T04:07:38.183Z,99.99
2018-10-12T04:08:38.162Z,99.99
2018-10-12T04:09:38.159Z,99.99
2018-10-12T04:10:38.428Z,99.99
2018-10-12T04:11:38.410Z,99.99
2018-10-12T04:12:38.597Z,99.99
2018-10-12T04:13:38.407Z,99.99
2018-10-12T04:14:38.156Z,99.99
2018-10-12T04:15:38.400Z,99.99
2018-10-12T04:16:38.138Z,99.99
2018-10-12T04:17:38.135Z,99.99
2018-10-12T04:18:38.396Z,99.99
2018-10-12T04:19:38.412Z,99.99
2018-10-12T04:20:38.138Z,99.99
2018-10-12T04:21:38.393Z,99.99
2018-10-12T04:22:38.133Z,99.99
2018-10-12T04:23:38.389Z,99.99
2018-10-12T04:24:38.135Z,99.99
2018-10-12T04:25:38.392Z,99.99
2018-10-12T04:26:38.379Z,99.99
2018-10-12T04:27:38.368Z,99.99
2018-10-12T04:28:38.367Z,99.99
2018-10-12T04:29:38.116Z,99.99
2018-10-12T04:30:38.370Z,99.99
2018-10-12T04:31:38.369Z,99.99
2018-10-12T04:32:38.370Z,99.99
2018-10-12T04:33:38.371Z,99.99
2018-10-12T04:34:38.662Z,99.99
2018-10-12T04:35:38.400Z,99.99
2018-10-12T04:36:38.106Z,99.99
2018-10-12T04:37:38.354Z,99.99
2018-10-12T04:38:38.362Z,99.99
2018-10-12T04:39:38.103Z,99.99
2018-10-12T04:40:38.348Z,99.99
2018-10-12T04:41:38.355Z,99.99
2018-10-12T04:42:38.356Z,99.99
2018-10-12T04:43:38.097Z,99.99
2018-10-12T04:44:38.359Z,99.99
2018-10-12T04:45:38.340Z,99.99
2018-10-12T04:46:38.089Z,99.99
2018-10-12T04:47:38.089Z,99.99
2018-10-12T04:48:38.101Z,99.99
2018-10-12T04:49:38.368Z,99.99
2018-10-12T04:50:38.330Z,99.99
2018-10-12T04:51:38.087Z,99.99
2018-10-12T04:52:38.327Z,99.99
2018-10-12T04:53:38.400Z,99.99
2018-10-12T04:54:38.088Z,99.99
2018-10-12T04:55:38.331Z,99.99
2018-10-12T04:56:38.085Z,99.99
2018-10-12T04:57:38.070Z,99.99
2018-10-12T04:58:38.067Z,99.99
2018-10-12T04:59:38.323Z,99.99
2018-10-12T05:00:38.111Z,99.99
2018-10-12T05:01:38.336Z,99.99
2018-10-12T05:02:38.051Z,99.99
2018-10-12T05:03:38.308Z,99.99
2018-10-12T05:04:38.548Z,99.99
2018-10-12T05:05:38.305Z,99.99
2018-10-12T05:06:38.042Z,99.99
2018-10-12T05:07:38.064Z,99.99
2018-10-12T05:08:38.299Z,99.99
2018-10-12T05:09:38.330Z,99.99
2018-10-12T05:10:38.294Z,99.99
2018-10-12T05:11:38.041Z,99.99
2018-10-12T05:12:38.317Z,99.99
2018-10-12T05:13:38.282Z,99.99
2018-10-12T05:14:38.039Z,99.99
2018-10-12T05:15:38.292Z,99.99
2018-10-12T05:16:38.282Z,99.99
2018-10-12T05:17:38.023Z,99.99
2018-10-12T05:18:38.308Z,99.99
2018-10-12T05:19:38.042Z,99.99
2018-10-12T05:20:38.269Z,99.99
2018-10-12T05:21:38.017Z,99.99
2018-10-12T05:22:38.018Z,99.99
2018-10-12T05:23:38.009Z,99.99
2018-10-12T05:24:38.265Z,99.99
2018-10-12T05:25:38.011Z,99.99
2018-10-12T05:26:38.039Z,99.99
2018-10-12T05:27:38.269Z,99.99
2018-10-12T05:28:37.996Z,99.99
2018-10-12T05:29:38.247Z,99.99
2018-10-12T05:30:38.241Z,99.99
2018-10-12T05:31:38.001Z,99.99
2018-10-12T05:32:37.998Z,99.99
2018-10-12T05:33:37.987Z,99.99
2018-10-12T05:34:39.288Z,99.99
2018-10-12T05:35:38.240Z,99.99
2018-10-12T05:36:37.981Z,99.99
2018-10-12T05:37:38.227Z,99.99
2018-10-12T05:38:38.227Z,99.99
2018-10-12T05:39:37.985Z,99.99
2018-10-12T05:40:38.219Z,99.99
2018-10-12T05:41:38.219Z,99.99
2018-10-12T05:42:38.007Z,99.99
2018-10-12T05:43:38.449Z,99.99
2018-10-12T05:44:38.223Z,99.99
2018-10-12T05:45:38.226Z,99.99
2018-10-12T05:46:38.198Z,99.99
2018-10-12T05:47:37.947Z,99.99
2018-10-12T05:48:38.268Z,99.99
2018-10-12T05:49:37.947Z,99.99
2018-10-12T05:50:38.192Z,99.99
2018-10-12T05:51:37.936Z,99.99
2018-10-12T05:52:38.199Z,99.99
2018-10-12T05:53:38.220Z,99.99
2018-10-12T05:54:38.186Z,99.99
2018-10-12T05:55:38.301Z,99.99
2018-10-12T05:56:37.928Z,99.99
2018-10-12T05:57:38.180Z,99.99
2018-10-12T05:58:38.190Z,99.99
2018-10-12T05:59:38.182Z,99.99
2018-10-12T06:00:38.176Z,99.99
2018-10-12T06:01:37.921Z,99.99
2018-10-12T06:02:38.170Z,99.99
2018-10-12T06:03:38.167Z,99.99
2018-10-12T06:04:38.704Z,99.99
2018-10-12T06:05:38.158Z,99.99
2018-10-12T06:06:37.948Z,99.99
2018-10-12T06:07:38.192Z,99.99
2018-10-12T06:08:38.170Z,99.99
2018-10-12T06:09:38.349Z,99.99
2018-10-12T06:10:38.152Z,99.99
2018-10-12T06:11:38.149Z,99.99
2018-10-12T06:12:38.142Z,99.99
2018-10-12T06:13:38.171Z,99.99
2018-10-12T06:14:38.242Z,99.99
2018-10-12T06:15:38.390Z,99.99
2018-10-12T06:16:37.882Z,99.99
2018-10-12T06:17:37.879Z,99.99
2018-10-12T06:18:38.141Z,99.99
2018-10-12T06:19:38.133Z,99.99
2018-10-12T06:20:37.878Z,99.99
2018-10-12T06:21:38.390Z,99.99
2018-10-12T06:22:37.868Z,99.99
2018-10-12T06:23:38.127Z,99.99
2018-10-12T06:24:38.123Z,99.99
2018-10-12T06:25:37.863Z,99.99
2018-10-12T06:26:38.199Z,99.99
2018-10-12T06:27:38.122Z,99.99
2018-10-12T06:28:38.133Z,99.99
2018-10-12T06:29:37.856Z,99.99
2018-10-12T06:30:38.120Z,99.99
2018-10-12T06:31:38.109Z,99.99
2018-10-12T06:32:37.842Z,99.99
2018-10-12T06:33:38.103Z,99.99
2018-10-12T06:34:38.642Z,99.99
2018-10-12T06:35:38.102Z,99.99
2018-10-12T06:36:37.833Z,99.99
2018-10-12T06:37:37.834Z,99.99
2018-10-12T06:38:38.097Z,99.99
2018-10-12T06:39:38.091Z,99.99
2018-10-12T06:40:38.131Z,99.99
2018-10-12T06:41:38.498Z,99.99
2018-10-12T06:42:38.096Z,99.99
2018-10-12T06:43:38.105Z,99.99
2018-10-12T06:44:38.090Z,99.99
2018-10-12T06:45:37.825Z,99.99
2018-10-12T06:46:38.246Z,99.99
2018-10-12T06:47:38.104Z,99.99
2018-10-12T06:48:38.082Z,99.99
2018-10-12T06:49:37.816Z,99.99
2018-10-12T06:50:37.811Z,99.99
2018-10-12T06:51:38.074Z,99.99
2018-10-12T06:52:38.085Z,99.99
2018-10-12T06:53:38.072Z,99.99
2018-10-12T06:54:38.070Z,99.99
2018-10-12T06:55:37.799Z,99.99
2018-10-12T06:56:37.800Z,99.99
2018-10-12T06:57:38.082Z,99.99
2018-10-12T06:58:38.064Z,99.99
2018-10-12T06:59:37.807Z,99.99
2018-10-12T07:00:37.791Z,99.99
2018-10-12T07:01:37.790Z,99.99
2018-10-12T07:02:37.789Z,99.99
2018-10-12T07:03:38.070Z,99.99
2018-10-12T07:04:38.048Z,99.99
2018-10-12T07:05:38.217Z,99.99
2018-10-12T07:06:38.070Z,99.99
2018-10-12T07:07:37.779Z,99.99
2018-10-12T07:08:38.050Z,99.99
2018-10-12T07:09:38.051Z,99.99
2018-10-12T07:10:37.774Z,99.99
2018-10-12T07:11:38.045Z,99.99
2018-10-12T07:12:38.030Z,99.99
2018-10-12T07:13:38.140Z,99.99
2018-10-12T07:14:38.035Z,95.51
2018-10-12T07:15:37.776Z,90.52
2018-10-12T07:16:37.771Z,87.01
2018-10-12T07:17:38.056Z,84.55
2018-10-12T07:18:37.777Z,81.32
2018-10-12T07:19:38.315Z,79.35
2018-10-12T07:20:37.812Z,78.52
2018-10-12T07:21:37.778Z,76.31
2018-10-12T07:22:38.050Z,75.44
2018-10-12T07:23:38.053Z,74.07
2018-10-12T07:24:37.789Z,72.24
2018-10-12T07:25:37.787Z,71.31
2018-10-12T07:26:38.060Z,70.73
2018-10-12T07:27:38.056Z,69.03
2018-10-12T07:28:38.057Z,68.39
2018-10-12T07:29:38.063Z,68.1
2018-10-12T07:30:38.068Z,66.11
2018-10-12T07:31:37.895Z,65.43
2018-10-12T07:32:38.073Z,65.43
2018-10-12T07:33:38.081Z,65.43
2018-10-12T07:34:38.073Z,65.24
2018-10-12T07:35:37.821Z,64.76
2018-10-12T07:36:38.091Z,64.69
2018-10-12T07:37:38.265Z,64.66
2018-10-12T07:38:37.822Z,64.69
2018-10-12T07:39:38.094Z,64.18
2018-10-12T07:40:38.099Z,63.5
2018-10-12T07:41:37.839Z,63.34
2018-10-12T07:42:38.246Z,63.34
2018-10-12T07:43:37.844Z,62.57
2018-10-12T07:44:38.125Z,62.47
2018-10-12T07:45:38.125Z,61.73
2018-10-12T07:46:38.131Z,62.47
2018-10-12T07:47:37.855Z,62.08
2018-10-12T07:48:38.131Z,61.99
2018-10-12T07:49:38.152Z,61.99
2018-10-12T07:50:37.874Z,62.66
2018-10-12T07:51:37.878Z,62.76
2018-10-12T07:52:38.162Z,63.21
2018-10-12T07:53:37.888Z,62.92
2018-10-12T07:54:38.167Z,62.57
2018-10-12T07:55:37.896Z,63.6
2018-10-12T07:56:37.902Z,64.95
2018-10-12T07:57:38.186Z,66.72
2018-10-12T07:58:38.169Z,68.04
2018-10-12T07:59:38.167Z,69.93
2018-10-12T08:00:38.545Z,71.72
2018-10-12T08:01:37.927Z,73.32
2018-10-12T08:02:38.189Z,75.05
2018-10-12T08:03:38.191Z,76.46
2018-10-12T08:04:38.195Z,78.25
2018-10-12T08:05:39.810Z,78.98
2018-10-12T08:06:38.278Z,80.32
2018-10-12T08:07:38.209Z,81.53
2018-10-12T08:08:37.941Z,81.92
2018-10-12T08:09:38.334Z,83.07
2018-10-12T08:10:38.206Z,83.54
2018-10-12T08:11:38.221Z,83.16
2018-10-12T08:12:38.216Z,83.74
2018-10-12T08:13:37.979Z,83.8
2018-10-12T08:14:38.223Z,83.8
2018-10-12T08:15:38.237Z,84.18
2018-10-12T08:16:38.232Z,84.18
2018-10-12T08:17:37.963Z,84.85
2018-10-12T08:18:38.225Z,84.75
2018-10-12T08:19:38.221Z,85.14
2018-10-12T08:20:38.228Z,85.04
2018-10-12T08:21:38.221Z,85.42
2018-10-12T08:22:38.229Z,85.42
2018-10-12T08:23:38.223Z,85.24
2018-10-12T08:24:37.972Z,85.62
2018-10-12T08:25:38.236Z,85.62
2018-10-12T08:26:37.966Z,85.42
2018-10-12T08:27:38.234Z,84.95
2018-10-12T08:28:38.011Z,85.91
2018-10-12T08:29:38.238Z,85.04
2018-10-12T08:30:37.971Z,84.66
2018-10-12T08:31:38.069Z,84.27
2018-10-12T08:32:38.253Z,84.47
2018-10-12T08:33:38.259Z,84.6
2018-10-12T08:34:37.986Z,84.03
2018-10-12T08:35:39.286Z,84.12
2018-10-12T08:36:37.989Z,83.54
2018-10-12T08:37:38.257Z,83.45
2018-10-12T08:38:38.242Z,82.59
2018-10-12T08:39:38.240Z,81.92
2018-10-12T08:40:38.245Z,82.34
2018-10-12T08:41:38.303Z,82.05
2018-10-12T08:42:38.243Z,81.38
2018-10-12T08:43:38.247Z,81.19
2018-10-12T08:44:38.243Z,80.71
2018-10-12T08:45:38.245Z,80.42
2018-10-12T08:46:38.251Z,80.71
2018-10-12T08:47:37.990Z,80.46
2018-10-12T08:48:38.249Z,80.22
2018-10-12T08:49:38.249Z,80.36
2018-10-12T08:50:38.252Z,79.88
2018-10-12T08:51:38.246Z,79.98
2018-10-12T08:52:38.019Z,79.88
2018-10-12T08:53:38.247Z,79.21
2018-10-12T08:54:38.250Z,79.11
2018-10-12T08:55:38.058Z,79.3
2018-10-12T08:56:37.996Z,78.83
2018-10-12T08:57:38.258Z,79.02
2018-10-12T08:58:38.268Z,78.44
2018-10-12T08:59:38.259Z,78.44
2018-10-12T09:00:38.264Z,78.44
2018-10-12T09:01:38.253Z,78.63
2018-10-12T09:02:38.282Z,78.44
2018-10-12T09:03:38.251Z,78.96
2018-10-12T09:04:38.275Z,78.96
2018-10-12T09:05:38.250Z,78.67
2018-10-12T09:06:38.263Z,78.19
2018-10-12T09:07:38.280Z,77.81
2018-10-12T09:08:38.022Z,77.51
2018-10-12T09:09:38.324Z,77.65
2018-10-12T09:10:38.027Z,77.17
2018-10-12T09:11:38.276Z,77.08
2018-10-12T09:12:38.029Z,76.78
2018-10-12T09:13:38.277Z,76.5
2018-10-12T09:14:38.272Z,76.21
2018-10-12T09:15:38.028Z,75.92
2018-10-12T09:16:38.283Z,76.21
2018-10-12T09:17:38.305Z,75.92
2018-10-12T09:18:38.278Z,75.92
2018-10-12T09:19:38.040Z,76.01
2018-10-12T09:20:38.343Z,75.15
2018-10-12T09:21:38.306Z,74.9
2018-10-12T09:22:38.247Z,75.19
2018-10-12T09:23:38.294Z,74.61
2018-10-12T09:24:38.285Z,74.9
2018-10-12T09:25:38.287Z,74.22
2018-10-12T09:26:38.035Z,73.88
2018-10-12T09:27:38.294Z,73.68
2018-10-12T09:28:38.295Z,73.97
2018-10-12T09:29:38.295Z,73.68
2018-10-12T09:30:38.299Z,73.3
2018-10-12T09:31:38.300Z,72.81
2018-10-12T09:32:38.304Z,72.91
2018-10-12T09:33:38.052Z,72.18
2018-10-12T09:34:38.314Z,71.98
2018-10-12T09:35:38.314Z,72.08
2018-10-12T09:36:38.563Z,72.08
2018-10-12T09:37:38.338Z,72.27
2018-10-12T09:38:38.061Z,71.79
2018-10-12T09:39:38.092Z,71.5
2018-10-12T09:40:38.317Z,71.31
2018-10-12T09:41:38.318Z,71.31
2018-10-12T09:42:38.071Z,71.5
2018-10-12T09:43:38.330Z,70.96
2018-10-12T09:44:38.328Z,71.06
2018-10-12T09:45:38.326Z,71.25
2018-10-12T09:46:38.103Z,70.48
2018-10-12T09:47:38.330Z,70.67
2018-10-12T09:48:38.341Z,70.28
2018-10-12T09:49:38.084Z,70.28
2018-10-12T09:50:38.088Z,70.48
2018-10-12T09:51:38.353Z,69.8
2018-10-12T09:52:38.369Z,69.74
2018-10-12T09:53:38.351Z,69.71
2018-10-12T09:54:38.354Z,69.07
2018-10-12T09:55:38.106Z,68.49
2018-10-12T09:56:38.109Z,68.77
2018-10-12T09:57:38.363Z,68.68
2018-10-12T09:58:38.368Z,69.74
2018-10-12T09:59:38.370Z,68.49
2018-10-12T10:00:38.367Z,67.75
2018-10-12T10:01:38.479Z,68.97
2018-10-12T10:02:38.364Z,68.62
2018-10-12T10:03:38.133Z,68.23
2018-10-12T10:04:38.368Z,68.33
2018-10-12T10:05:38.130Z,67.94
2018-10-12T10:06:42.381Z,67.94
2018-10-12T10:07:38.686Z,67.27
2018-10-12T10:08:38.159Z,67.55
2018-10-12T10:09:38.402Z,67.94
2018-10-12T10:10:38.158Z,67.65
2018-10-12T10:11:38.148Z,67.17
2018-10-12T10:12:38.139Z,67.17
2018-10-12T10:13:38.448Z,67.55
2018-10-12T10:14:38.406Z,68.33
2018-10-12T10:15:38.602Z,66.91
2018-10-12T10:16:38.411Z,66.53
2018-10-12T10:17:38.425Z,66.43
2018-10-12T10:18:38.177Z,65.75
2018-10-12T10:19:38.168Z,65.75
2018-10-12T10:20:38.421Z,66.63
2018-10-12T10:21:38.418Z,66.05
2018-10-12T10:22:38.665Z,65.37
2018-10-12T10:23:38.426Z,65.17
2018-10-12T10:24:38.438Z,65.37
2018-10-12T10:25:38.430Z,64.98
2018-10-12T10:26:38.441Z,64.79
2018-10-12T10:27:38.434Z,64.69
2018-10-12T10:28:38.207Z,65.17
2018-10-12T10:29:38.446Z,65.56
2018-10-12T10:30:38.461Z,65.2
2018-10-12T10:31:38.201Z,64.72
2018-10-12T10:32:38.452Z,64.82
2018-10-12T10:33:38.457Z,64.69
2018-10-12T10:34:38.205Z,64.34
2018-10-12T10:35:38.217Z,64.63
2018-10-12T10:36:38.215Z,63.66
2018-10-12T10:37:38.244Z,63.95
2018-10-12T10:38:38.233Z,63.47
2018-10-12T10:39:38.237Z,63.47
2018-10-12T10:40:38.476Z,63.76
2018-10-12T10:41:38.484Z,64.82
2018-10-12T10:42:38.239Z,64.43
2018-10-12T10:43:38.489Z,63.66
2018-10-12T10:44:38.241Z,63.28
2018-10-12T10:45:38.503Z,62.89
2018-10-12T10:46:38.497Z,62.53
2018-10-12T10:47:38.499Z,62.6
2018-10-12T10:48:38.246Z,62.12
2018-10-12T10:49:38.513Z,62.24
2018-10-12T10:50:38.507Z,62.44
2018-10-12T10:51:38.507Z,62.53
2018-10-12T10:52:38.526Z,62.44
2018-10-12T10:53:38.355Z,61.57
2018-10-12T10:54:38.277Z,61.76
2018-10-12T10:55:38.292Z,62.73
2018-10-12T10:56:38.525Z,62.53
2018-10-12T10:57:38.282Z,61.86
2018-10-12T10:58:38.537Z,61.47
2018-10-12T10:59:38.555Z,62.53
2018-10-12T11:00:38.292Z,62.24
2018-10-12T11:01:38.546Z,61.5
2018-10-12T11:02:38.294Z,61.3
2018-10-12T11:03:38.550Z,60.53
2018-10-12T11:04:38.305Z,60.72
2018-10-12T11:05:38.558Z,60.82
2018-10-12T11:06:38.562Z,60.63
2018-10-12T11:07:38.311Z,60.92
2018-10-12T11:08:38.567Z,60.34
2018-10-12T11:09:38.583Z,59.76
2018-10-12T11:10:38.574Z,59.08
2018-10-12T11:11:38.322Z,58.12
2018-10-12T11:12:38.735Z,58.92
2018-10-12T11:13:38.370Z,58.34
2018-10-12T11:14:38.586Z,57.95
2018-10-12T11:15:38.594Z,57.66
2018-10-12T11:16:38.347Z,57.56
2018-10-12T11:17:38.398Z,59.11
2018-10-12T11:18:38.602Z,57.56
2018-10-12T11:19:38.428Z,56.98
2018-10-12T11:20:38.615Z,56.88
2018-10-12T11:21:38.612Z,56.88
2018-10-12T11:22:38.702Z,58.63
2018-10-12T11:23:38.619Z,58.07
2018-10-12T11:24:38.880Z,57.69
2018-10-12T11:25:38.363Z,57.11
2018-10-12T11:26:38.680Z,56.62
2018-10-12T11:27:38.628Z,56.34
2018-10-12T11:28:38.638Z,55.85
2018-10-12T11:29:38.637Z,55.46
2018-10-12T11:30:38.643Z,56.34
2018-10-12T11:31:38.689Z,56.52
2018-10-12T11:32:38.760Z,54.52
2018-10-12T11:33:38.664Z,56.46
2018-10-12T11:34:38.708Z,55.76
2018-10-12T11:35:38.419Z,55
2018-10-12T11:36:38.678Z,55
2018-10-12T11:37:38.682Z,55.98
2018-10-12T11:38:38.676Z,56.36
2018-10-12T11:39:38.692Z,56.16
2018-10-12T11:40:38.685Z,55.78
2018-10-12T11:41:38.424Z,54.81
2018-10-12T11:42:38.696Z,53.75
2018-10-12T11:43:38.445Z,53.45
2018-10-12T11:44:38.709Z,53.33
2018-10-12T11:45:38.697Z,53.91
2018-10-12T11:46:38.705Z,55.46
2018-10-12T11:47:39.510Z,56.36
2018-10-12T11:48:38.458Z,54.98
2018-10-12T11:49:38.726Z,53.94
2018-10-12T11:50:38.721Z,53.55
2018-10-12T11:51:38.730Z,52.97
2018-10-12T11:52:39.582Z,53.45
2018-10-12T11:53:38.482Z,53.75
2018-10-12T11:54:38.740Z,54.23
2018-10-12T11:55:38.740Z,56.07
2018-10-12T11:56:38.754Z,54.52
2018-10-12T11:57:38.782Z,54.13
2018-10-12T11:58:38.503Z,52.68
2018-10-12T11:59:38.840Z,54.43
2018-10-12T12:00:38.757Z,56.36
2018-10-12T12:01:38.764Z,55.49
2018-10-12T12:02:38.767Z,54.23
2018-10-12T12:03:38.774Z,54.84
2018-10-12T12:04:38.520Z,53.77
2018-10-12T12:05:38.777Z,53
2018-10-12T12:06:38.523Z,53.19
2018-10-12T12:07:38.796Z,53.49
2018-10-12T12:08:38.791Z,52.51
2018-10-12T12:09:38.792Z,52.22
2018-10-12T12:10:38.805Z,51.54
2018-10-12T12:11:38.820Z,51.25
2018-10-12T12:12:38.548Z,51.64
2018-10-12T12:13:38.955Z,52.12
2018-10-12T12:14:38.560Z,52.97
2018-10-12T12:15:38.827Z,52.1
2018-10-12T12:16:38.827Z,52
2018-10-12T12:17:38.829Z,53.49
2018-10-12T12:18:38.827Z,52.32
2018-10-12T12:19:38.850Z,51.54
2018-10-12T12:20:38.645Z,51.16
2018-10-12T12:21:38.589Z,51.54
2018-10-12T12:22:38.591Z,51.52
2018-10-12T12:23:38.594Z,51.81
2018-10-12T12:24:38.866Z,52.68
2018-10-12T12:25:38.602Z,51.25
2018-10-12T12:26:38.865Z,53.09
2018-10-12T12:27:38.872Z,51.45
2018-10-12T12:28:38.890Z,50.77
2018-10-12T12:29:38.624Z,51.06
2018-10-12T12:30:38.629Z,53.49
2018-10-12T12:31:38.900Z,55.81
2018-10-12T12:32:38.634Z,54.74
2018-10-12T12:33:38.892Z,53.29
2018-10-12T12:34:39.223Z,51.45
2018-10-12T12:35:40.082Z,52.42
2018-10-12T12:36:38.917Z,51.54
2018-10-12T12:37:38.652Z,50.38
2018-10-12T12:38:38.660Z,50.48
2018-10-12T12:39:38.943Z,50.96
2018-10-12T12:40:38.915Z,50.96
2018-10-12T12:41:39.067Z,50.48
2018-10-12T12:42:38.675Z,51.25
2018-10-12T12:43:38.960Z,50.89
2018-10-12T12:44:39.016Z,49.99
2018-10-12T12:45:38.687Z,50.5
2018-10-12T12:46:38.697Z,50.79
2018-10-12T12:47:38.911Z,49.15
2018-10-12T12:48:39.852Z,50.31
2018-10-12T12:49:38.967Z,51.47
2018-10-12T12:50:38.727Z,49.82
2018-10-12T12:51:38.960Z,48.76
2018-10-12T12:52:38.966Z,49.82
2018-10-12T12:53:39.073Z,47.89